Weather

Currently

Time Weather Temperature Precipitation Clouds Wind Wind Bumps Pressure
05:56 3,3 °C 0,8 °C 0,0 mm/h 67 % 1,0 m/s 1015,2 mb

Current values recorded by the weather station installed in the spa park. Data updated at 5:56.


Forecast

Time Weather Temperature Precipitation Clouds Wind Wind Bumps Pressure
22:00 1,2 °C 0 mm/h 87 % 5,2 m/s 13,4 m/s 1023 hPa
23:00 0,5 °C 0,32 mm/h 100 % 4 m/s 12,6 m/s 1024 hPa

Forecast data of ČHMÚ (Czech hydrometeorological institute) based on Aladin numerical model for Konstantinovy Lázně area. The data is updated daily at 6:00.

Time Weather Temperature Precipitation Clouds Wind Wind Bumps Pressure
00:00 -0,3 °C 0,25 mm/h 100 % 4,4 m/s 11,4 m/s 1025 hPa
01:00 -0,3 °C 0,15 mm/h 100 % 3,9 m/s 10,6 m/s 1025 hPa
02:00 -0,8 °C 0,04 mm/h 100 % 4,2 m/s 10,7 m/s 1025 hPa
03:00 -1,3 °C 0,07 mm/h 98 % 4,4 m/s 10,7 m/s 1026 hPa
04:00 -1,7 °C 0,04 mm/h 90 % 4,1 m/s 10,7 m/s 1026 hPa
05:00 -2,3 °C 0,01 mm/h 73 % 3,9 m/s 10 m/s 1026 hPa
06:00 -2,7 °C 0,01 mm/h 53 % 3,8 m/s 9,5 m/s 1027 hPa
07:00 -2,9 °C 0,01 mm/h 85 % 3,5 m/s 9,2 m/s 1027 hPa
08:00 -2,7 °C 0 mm/h 87 % 3,4 m/s 8,8 m/s 1028 hPa
09:00 -2,5 °C 0 mm/h 59 % 3,7 m/s 9,2 m/s 1028 hPa
10:00 -1,7 °C 0 mm/h 55 % 3,6 m/s 9 m/s 1028 hPa
11:00 -1,1 °C 0 mm/h 57 % 3,2 m/s 8,9 m/s 1028 hPa
12:00 0 °C 0 mm/h 67 % 3 m/s 8,1 m/s 1028 hPa
13:00 0,8 °C 0 mm/h 49 % 2,5 m/s 8,1 m/s 1027 hPa
14:00 1,8 °C 0 mm/h 62 % 3,7 m/s 9,5 m/s 1027 hPa
15:00 2,5 °C 0 mm/h 8 % 3,7 m/s 9,9 m/s 1026 hPa
16:00 2,7 °C 0 mm/h 0 % 3,6 m/s 10,5 m/s 1026 hPa
17:00 2,8 °C 0 mm/h 0 % 3,8 m/s 10,4 m/s 1026 hPa
18:00 1,7 °C 0 mm/h 0 % 3,9 m/s 9,7 m/s 1026 hPa
19:00 0,5 °C 0 mm/h 0 % 3,2 m/s 9,6 m/s 1026 hPa
20:00 -0,8 °C 0 mm/h 0 % 2 m/s 7,7 m/s 1027 hPa
21:00 -1,8 °C 0 mm/h 0 % 2,3 m/s 5,2 m/s 1028 hPa
22:00 -2,5 °C 0 mm/h 0 % 2,1 m/s 5,2 m/s 1028 hPa
23:00 -3,3 °C 0 mm/h 0 % 1,7 m/s 4,8 m/s 1028 hPa

Forecast data of ČHMÚ (Czech hydrometeorological institute) based on Aladin numerical model for Konstantinovy Lázně area. The data is updated daily at 6:00.

Time Weather Temperature Precipitation Clouds Wind Wind Bumps Pressure
00:00 -4 °C 0 mm/h 0 % 1,5 m/s 3,6 m/s 1028 hPa
01:00 -4,8 °C 0 mm/h 0 % 1,3 m/s 2,8 m/s 1028 hPa
02:00 -5,3 °C 0 mm/h 0 % 1,2 m/s 2,1 m/s 1028 hPa
03:00 -5,8 °C 0 mm/h 0 % 1,2 m/s 1,9 m/s 1028 hPa
04:00 -6,1 °C 0 mm/h 0 % 0,8 m/s 1,8 m/s 1028 hPa
05:00 -6,5 °C 0 mm/h 10 % 0,8 m/s 1,1 m/s 1028 hPa
06:00 -6,3 °C 0 mm/h 60 % 1,3 m/s 1,9 m/s 1028 hPa
07:00 -6,2 °C 0 mm/h 64 % 1,3 m/s 2 m/s 1029 hPa
08:00 -4,7 °C 0 mm/h 100 % 0,9 m/s 1,9 m/s 1029 hPa
09:00 -2,4 °C 0,02 mm/h 98 % 1,1 m/s 2,8 m/s 1030 hPa
10:00 -0,3 °C 0 mm/h 90 % 1,3 m/s 3,7 m/s 1029 hPa
11:00 0,9 °C 0,01 mm/h 99 % 2 m/s 5,2 m/s 1029 hPa
12:00 1 °C 0,08 mm/h 100 % 2,5 m/s 6,3 m/s 1030 hPa
13:00 0,5 °C 0,49 mm/h 97 % 1,7 m/s 6,5 m/s 1029 hPa
14:00 1,5 °C 0,02 mm/h 100 % 2,9 m/s 7,4 m/s 1029 hPa
15:00 2 °C 0 mm/h 99 % 2,1 m/s 7,3 m/s 1028 hPa
16:00 1,8 °C 0,08 mm/h 20 % 3,3 m/s 9,9 m/s 1028 hPa
17:00 2 °C 0,02 mm/h 97 % 4,7 m/s 11,5 m/s 1028 hPa
18:00 0,8 °C 0,17 mm/h 79 % 2,9 m/s 11,8 m/s 1029 hPa
19:00 0,2 °C 0,02 mm/h 35 % 2,7 m/s 7,2 m/s 1029 hPa
20:00 -1,1 °C 0,01 mm/h 30 % 2,3 m/s 6,4 m/s 1029 hPa
21:00 -1,9 °C 0 mm/h 6 % 2,2 m/s 5,5 m/s 1030 hPa
22:00 -2,6 °C 0 mm/h 5 % 2,1 m/s 5 m/s 1030 hPa
23:00 -3,2 °C 0 mm/h 0 % 1,8 m/s 4,7 m/s 1030 hPa

Forecast data of ČHMÚ (Czech hydrometeorological institute) based on Aladin numerical model for Konstantinovy Lázně area. The data is updated daily at 6:00.